Time;durP1;ratioP1;P1;durP2;ratioP2;P2;SDS_P1;SDS_P2;PMS_P1;PMS_P2;Temp;Humidity;BMP_temperature;BMP_pressure;BME280_temperature;BME280_humidity;BME280_pressure;Samples;Min_cycle;Max_cycle;Signal;HPM_P1;HPM_P2
2022/07/05 00:01:22;;;;;;;0.40;0.40;;;;;;;19.93;94.36;95727.75;4366609;32;20224;-58
2022/07/05 00:03:48;;;;;;;0.70;0.70;;;;;;;20.01;93.91;95726.81;4347548;32;20184;-57
2022/07/05 00:06:14;;;;;;;0.20;0.20;;;;;;;19.93;94.46;95716.97;4339521;32;20238;-61
2022/07/05 00:08:42;;;;;;;0.30;0.30;;;;;;;19.99;94.11;95726.38;4345359;32;20193;-58
2022/07/05 00:11:08;;;;;;;0.50;0.50;;;;;;;19.71;95.77;95729.84;4356993;32;20193;-58
2022/07/05 00:13:36;;;;;;;0.10;0.10;;;;;;;19.63;95.78;95728.06;4365716;32;20211;-58
2022/07/05 00:16:10;;;;;;;0.30;0.30;;;;;;;19.71;95.38;95726.38;4358748;32;20287;-58
2022/07/05 00:18:37;;;;;;;0.57;0.57;;;;;;;19.69;95.41;95725.94;4366299;32;20223;-58
2022/07/05 00:21:10;;;;;;;0.10;0.10;;;;;;;19.71;95.17;95716.38;4353478;32;20456;-58
2022/07/05 00:23:35;;;;;;;0.37;0.37;;;;;;;19.79;95.25;95711.97;4363270;32;20302;-58
2022/07/05 00:26:05;;;;;;;0.67;0.50;;;;;;;19.73;95.36;95722.22;4363511;32;20189;-57
2022/07/05 00:28:52;;;;;;;0.47;0.47;;;;;;;19.74;95.19;95718.41;4328574;32;20173;-58
2022/07/05 00:31:22;;;;;;;0.33;0.33;;;;;;;19.68;95.33;95725.13;4351915;32;20203;-57
2022/07/05 00:33:47;;;;;;;0.20;0.20;;;;;;;19.85;94.84;95724.84;4353660;32;20173;-58
2022/07/05 00:36:14;;;;;;;0.57;0.30;;;;;;;19.72;94.50;95728.72;4366145;32;20192;-58
2022/07/05 00:38:40;;;;;;;0.17;0.17;;;;;;;19.43;96.31;95720.91;4360389;32;20261;-58
2022/07/05 00:41:07;;;;;;;0.40;0.40;;;;;;;19.56;96.34;95717.06;4351792;32;20272;-58
2022/07/05 00:43:34;;;;;;;0.20;0.20;;;;;;;19.40;96.93;95716.19;4328327;32;20193;-58
2022/07/05 00:45:59;;;;;;;0.13;0.13;;;;;;;19.41;97.00;95704.31;4336145;32;20203;-57
2022/07/05 00:48:26;;;;;;;0.20;0.20;;;;;;;19.22;97.35;95719.16;4306401;32;20213;-58
2022/07/05 00:50:53;;;;;;;0.43;0.43;;;;;;;19.26;97.36;95719.25;4349753;32;20224;-57
2022/07/05 00:53:21;;;;;;;0.57;0.57;;;;;;;19.19;97.04;95710.97;4318158;32;20185;-58
2022/07/05 00:55:50;;;;;;;0.50;0.50;;;;;;;19.10;97.96;95713.78;4362162;32;20185;-58
2022/07/05 00:58:15;;;;;;;0.50;0.50;;;;;;;19.05;98.71;95705.94;4336532;32;20199;-58
2022/07/05 01:00:41;;;;;;;0.67;0.50;;;;;;;19.00;98.82;95698.09;4366591;32;20177;-57
2022/07/05 01:03:08;;;;;;;0.40;0.37;;;;;;;19.10;98.80;95691.50;4335273;32;20180;-58
2022/07/05 01:05:38;;;;;;;0.67;0.60;;;;;;;19.34;97.84;95686.03;4356635;32;20302;-58
2022/07/05 01:08:08;;;;;;;0.30;0.30;;;;;;;19.33;97.63;95689.09;4348175;32;20275;-58
2022/07/05 01:10:38;;;;;;;0.33;0.33;;;;;;;19.43;96.91;95692.09;4361136;32;20291;-58
2022/07/05 01:13:03;;;;;;;0.40;0.40;;;;;;;19.33;97.28;95692.53;4342456;32;20255;-58
2022/07/05 01:15:36;;;;;;;0.47;0.30;;;;;;;19.36;97.34;95683.78;4355245;32;20203;-58
2022/07/05 01:18:05;;;;;;;0.50;0.50;;;;;;;19.31;97.33;95680.59;4337232;32;20189;-58
2022/07/05 01:20:31;;;;;;;0.70;0.70;;;;;;;19.56;96.13;95690.94;4349445;32;20200;-58
2022/07/05 01:23:01;;;;;;;0.20;0.20;;;;;;;19.52;96.19;95692.78;4325279;32;20244;-59
2022/07/05 01:25:29;;;;;;;0.20;0.20;;;;;;;19.62;95.84;95696.88;4354097;32;20232;-58
2022/07/05 01:27:57;;;;;;;0.20;0.20;;;;;;;19.59;96.08;95699.47;4352441;32;20185;-58
2022/07/05 01:30:25;;;;;;;0.20;0.20;;;;;;;19.52;96.12;95695.47;4354766;32;20256;-58
2022/07/05 01:32:52;;;;;;;0.50;0.50;;;;;;;19.42;97.07;95697.81;4348745;32;20181;-58
2022/07/05 01:35:23;;;;;;;0.33;0.33;;;;;;;19.33;96.98;95695.22;4313906;32;20221;-57
2022/07/05 01:37:51;;;;;;;0.53;0.53;;;;;;;19.41;97.29;95694.34;4337264;32;20228;-58
2022/07/05 01:40:19;;;;;;;0.30;0.30;;;;;;;19.17;97.87;95697.84;4325871;32;20291;-63
2022/07/05 01:42:47;;;;;;;0.30;0.30;;;;;;;19.34;97.41;95693.31;4351321;32;20298;-59
2022/07/05 01:48:01;;;;;;;0.40;0.40;;;;;;;19.18;97.89;95685.97;4369740;32;20289;-57
2022/07/05 01:50:33;;;;;;;0.30;0.30;;;;;;;19.20;97.68;95681.03;4342851;32;20272;-57
2022/07/05 01:53:03;;;;;;;0.53;0.53;;;;;;;19.20;97.97;95686.41;4327004;32;20188;-58
2022/07/05 01:55:31;;;;;;;0.20;0.20;;;;;;;19.12;98.29;95691.94;4344007;32;20184;-58
2022/07/05 01:57:58;;;;;;;0.43;0.43;;;;;;;18.97;98.22;95688.00;4334860;32;20182;-59
2022/07/05 02:00:25;;;;;;;1.07;0.77;;;;;;;18.96;98.22;95683.75;4328084;32;20193;-58
2022/07/05 02:02:52;;;;;;;0.73;0.73;;;;;;;19.14;97.76;95685.06;4327525;32;20180;-58
2022/07/05 02:05:19;;;;;;;0.47;0.47;;;;;;;19.10;98.00;95686.09;4343009;32;20200;-58
2022/07/05 02:07:48;;;;;;;0.47;0.47;;;;;;;19.06;97.89;95695.97;4357502;32;20298;-58
2022/07/05 02:10:17;;;;;;;0.40;0.40;;;;;;;18.97;98.24;95701.44;4371145;32;20230;-58
2022/07/05 02:12:45;;;;;;;0.37;0.37;;;;;;;18.75;99.27;95691.16;4323216;32;20237;-58
2022/07/05 02:15:12;;;;;;;7.40;0.80;;;;;;;18.79;99.82;95697.44;4334276;32;20251;-58
2022/07/05 02:17:38;;;;;;;0.30;0.30;;;;;;;18.93;98.78;95697.06;4359663;32;20185;-57
2022/07/05 02:20:07;;;;;;;0.40;0.40;;;;;;;19.01;98.39;95696.97;4350127;32;20264;-57
2022/07/05 02:22:33;;;;;;;0.60;0.60;;;;;;;19.16;97.81;95696.28;4362515;32;20200;-58
2022/07/05 02:25:00;;;;;;;0.43;0.43;;;;;;;19.20;97.66;95696.38;4305986;32;20193;-58
2022/07/05 02:27:27;;;;;;;0.30;0.30;;;;;;;19.38;96.76;95703.09;4353931;32;20181;-58
2022/07/05 02:29:53;;;;;;;0.70;0.70;;;;;;;19.35;96.96;95698.38;4346914;32;20288;-58
2022/07/05 02:32:20;;;;;;;0.57;0.57;;;;;;;19.30;96.83;95695.94;4344200;32;20200;-58
2022/07/05 02:34:46;;;;;;;0.50;0.50;;;;;;;19.22;97.00;95699.53;4349805;32;20180;-58
2022/07/05 02:37:13;;;;;;;0.50;0.50;;;;;;;19.20;97.25;95699.09;4358807;32;20291;-58
2022/07/05 02:39:38;;;;;;;0.67;0.67;;;;;;;19.39;96.84;95701.97;4325661;32;20223;-59
2022/07/05 02:42:04;;;;;;;0.47;0.47;;;;;;;19.37;96.16;95701.50;4338140;32;20209;-59
2022/07/05 02:44:30;;;;;;;0.50;0.50;;;;;;;19.47;96.11;95694.87;4351416;32;20204;-58
2022/07/05 02:46:56;;;;;;;0.37;0.37;;;;;;;19.40;96.07;95697.34;4336627;32;20189;-59
2022/07/05 02:49:23;;;;;;;0.50;0.50;;;;;;;19.44;96.20;95692.88;4343183;32;20215;-59
2022/07/05 02:51:52;;;;;;;0.40;0.40;;;;;;;19.45;96.07;95699.81;4351732;32;20240;-58
2022/07/05 02:54:19;;;;;;;0.33;0.33;;;;;;;19.55;95.31;95704.75;4366127;32;20199;-58
2022/07/05 02:56:44;;;;;;;0.13;0.13;;;;;;;19.40;96.16;95700.84;4342244;32;20263;-59
2022/07/05 02:59:11;;;;;;;0.50;0.50;;;;;;;19.35;96.36;95708.34;4366548;32;20189;-59
2022/07/05 03:01:39;;;;;;;0.30;0.20;;;;;;;19.39;96.20;95703.88;4320153;32;20272;-59
2022/07/05 03:04:09;;;;;;;0.10;0.10;;;;;;;19.32;95.88;95704.47;4333833;32;20182;-58
2022/07/05 03:06:37;;;;;;;0.33;0.33;;;;;;;19.25;96.22;95709.63;4312847;32;20200;-58
2022/07/05 03:09:05;;;;;;;0.67;0.60;;;;;;;19.32;96.06;95712.53;4341684;32;20181;-58
2022/07/05 03:11:30;;;;;;;0.30;0.30;;;;;;;19.31;96.05;95710.97;4350231;32;20195;-58
2022/07/05 03:13:57;;;;;;;0.50;0.50;;;;;;;19.42;95.74;95708.56;4352707;32;20193;-58
2022/07/05 03:16:23;;;;;;;3.70;0.90;;;;;;;19.52;95.33;95710.84;4368027;32;20185;-58
2022/07/05 03:18:51;;;;;;;0.40;0.40;;;;;;;19.36;95.99;95710.69;4345710;32;20193;-58
2022/07/05 03:21:17;;;;;;;0.40;0.40;;;;;;;19.31;95.91;95710.19;4325953;32;20185;-59
2022/07/05 03:23:45;;;;;;;0.50;0.50;;;;;;;19.29;96.31;95715.09;4335466;32;20204;-58
2022/07/05 03:26:12;;;;;;;0.47;0.40;;;;;;;19.29;96.04;95712.41;4363509;32;20234;-59
2022/07/05 03:28:37;;;;;;;0.43;0.43;;;;;;;19.22;96.52;95716.44;4356066;32;20185;-58
2022/07/05 03:31:10;;;;;;;0.30;0.30;;;;;;;19.33;96.11;95716.00;4343556;32;20274;-58
2022/07/05 03:33:36;;;;;;;0.20;0.20;;;;;;;19.26;95.51;95718.47;4373233;32;20272;-58
2022/07/05 03:36:10;;;;;;;2.23;1.40;;;;;;;19.20;96.25;95716.00;4326832;32;20204;-58
2022/07/05 03:38:38;;;;;;;0.93;0.93;;;;;;;19.17;96.67;95716.69;4351115;32;20208;-59
2022/07/05 03:41:10;;;;;;;0.70;0.60;;;;;;;19.18;96.78;95715.56;4342590;32;20291;-58
2022/07/05 03:43:37;;;;;;;0.77;0.77;;;;;;;19.10;96.61;95721.06;4322617;32;20190;-59
2022/07/05 03:46:14;;;;;;;0.37;0.37;;;;;;;19.27;96.34;95717.34;4340701;32;20189;-58
2022/07/05 03:48:40;;;;;;;0.23;0.23;;;;;;;19.26;96.17;95715.78;4327954;32;20192;-58
2022/07/05 03:51:07;;;;;;;0.83;0.83;;;;;;;19.13;96.30;95718.47;4365391;32;20234;-58
2022/07/05 03:53:34;;;;;;;0.67;0.63;;;;;;;19.21;95.94;95716.78;4331291;32;20230;-58
2022/07/05 03:56:01;;;;;;;0.40;0.40;;;;;;;19.19;95.51;95722.50;4338858;32;20185;-58
2022/07/05 03:58:26;;;;;;;0.50;0.50;;;;;;;19.06;96.38;95723.66;4344397;32;20196;-58
2022/07/05 04:00:54;;;;;;;0.50;0.50;;;;;;;19.14;96.25;95722.72;4360538;32;20169;-58
2022/07/05 04:03:19;;;;;;;0.40;0.40;;;;;;;19.21;96.03;95725.66;4316907;32;20192;-58
2022/07/05 04:05:46;;;;;;;2.20;0.70;;;;;;;19.13;95.77;95729.22;4312529;32;20190;-58
2022/07/05 04:08:15;;;;;;;0.50;0.50;;;;;;;19.11;95.31;95725.34;4336070;32;20177;-58
2022/07/05 04:10:42;;;;;;;0.50;0.50;;;;;;;19.01;95.48;95731.94;4350744;32;20185;-58
2022/07/05 04:13:08;;;;;;;0.47;0.47;;;;;;;19.01;96.58;95733.84;4330086;32;20189;-59
2022/07/05 04:15:35;;;;;;;0.27;0.27;;;;;;;19.01;96.74;95731.94;4299327;32;20280;-58
2022/07/05 04:18:00;;;;;;;0.30;0.30;;;;;;;19.07;96.15;95741.34;4331800;32;20181;-58
2022/07/05 04:20:28;;;;;;;0.20;0.20;;;;;;;19.11;96.16;95734.19;4349214;32;20260;-58
2022/07/05 04:22:56;;;;;;;0.30;0.20;;;;;;;19.18;95.54;95734.38;4341256;32;20193;-58
2022/07/05 04:25:22;;;;;;;0.60;0.33;;;;;;;19.25;95.55;95736.53;4330602;32;20208;-58
2022/07/05 04:27:52;;;;;;;0.33;0.33;;;;;;;19.34;95.01;95733.69;4323652;32;20253;-59
2022/07/05 04:30:24;;;;;;;0.47;0.47;;;;;;;19.26;95.24;95732.72;4343636;32;20222;-60
2022/07/05 04:32:51;;;;;;;0.30;0.30;;;;;;;19.13;95.82;95740.00;4315777;32;20221;-59
2022/07/05 04:35:19;;;;;;;0.97;0.97;;;;;;;19.32;95.52;95738.66;4288455;33;20177;-61
2022/07/05 04:37:44;;;;;;;0.27;0.27;;;;;;;19.44;94.81;95739.41;4317010;32;20216;-58
2022/07/05 04:40:16;;;;;;;1.37;0.80;;;;;;;19.23;95.50;95739.53;4345822;32;20197;-58
2022/07/05 04:42:43;;;;;;;0.30;0.30;;;;;;;19.25;95.42;95735.72;4326793;32;20190;-59
2022/07/05 04:45:09;;;;;;;2.03;0.73;;;;;;;19.27;95.66;95736.97;4349621;32;20200;-59
2022/07/05 04:47:36;;;;;;;0.50;0.50;;;;;;;19.23;95.66;95742.25;4333481;32;20351;-58
2022/07/05 04:50:09;;;;;;;0.47;0.47;;;;;;;19.30;95.60;95743.59;4347958;32;20279;-58
2022/07/05 04:52:36;;;;;;;0.37;0.37;;;;;;;19.28;95.98;95741.22;4352183;32;20260;-58
2022/07/05 04:55:02;;;;;;;0.33;0.33;;;;;;;19.25;95.90;95747.28;4344319;32;20197;-58
2022/07/05 04:57:40;;;;;;;0.50;0.50;;;;;;;19.39;95.42;95741.53;4338197;32;20224;-58
2022/07/05 05:00:30;;;;;;;0.37;0.37;;;;;;;19.50;94.77;95742.69;4357501;32;20185;-57
2022/07/05 05:02:56;;;;;;;0.63;0.63;;;;;;;19.42;94.42;95748.94;4342985;32;20185;-58
2022/07/05 05:05:23;;;;;;;0.10;0.10;;;;;;;19.37;94.83;95749.16;4354010;32;20267;-58
2022/07/05 05:07:49;;;;;;;0.60;0.60;;;;;;;19.39;95.26;95749.59;4358586;32;20236;-58
2022/07/05 05:10:20;;;;;;;0.93;0.93;;;;;;;19.26;95.19;95748.06;4347469;32;20194;-58
2022/07/05 05:12:47;;;;;;;0.20;0.20;;;;;;;19.27;95.63;95745.03;4365408;32;20185;-58
2022/07/05 05:15:12;;;;;;;0.30;0.30;;;;;;;19.21;95.62;95741.00;4356393;32;20208;-58
2022/07/05 05:17:41;;;;;;;0.20;0.20;;;;;;;19.19;95.54;95746.72;4354166;32;20181;-58
2022/07/05 05:20:18;;;;;;;0.57;0.57;;;;;;;19.17;95.39;95740.87;4369810;32;20203;-58
2022/07/05 05:22:45;;;;;;;0.60;0.60;;;;;;;19.27;95.55;95741.56;4312850;32;20185;-65
2022/07/05 05:25:12;;;;;;;0.80;0.80;;;;;;;19.35;94.84;95740.63;4351796;32;20189;-58
2022/07/05 05:27:46;;;;;;;0.70;0.70;;;;;;;19.28;95.10;95740.44;4355487;32;20200;-60
2022/07/05 05:30:17;;;;;;;0.33;0.33;;;;;;;19.20;95.47;95742.13;4358207;32;20185;-58
2022/07/05 05:32:44;;;;;;;1.07;0.70;;;;;;;19.39;94.91;95736.94;4319304;32;20186;-58
2022/07/05 05:35:10;;;;;;;0.27;0.27;;;;;;;19.33;95.13;95738.28;4352324;32;20196;-58
2022/07/05 05:37:47;;;;;;;0.30;0.30;;;;;;;19.43;95.14;95737.84;4354286;32;20204;-58
2022/07/05 05:40:14;;;;;;;0.67;0.67;;;;;;;19.42;95.46;95740.87;4343649;32;20192;-58
2022/07/05 05:42:41;;;;;;;1.47;1.00;;;;;;;19.45;94.68;95745.56;4367810;32;20218;-58
2022/07/05 05:45:10;;;;;;;0.50;0.50;;;;;;;19.48;94.65;95734.91;4335253;32;20177;-58
2022/07/05 05:47:55;;;;;;;1.03;0.70;;;;;;;19.49;95.48;95739.19;4318696;32;20296;-58
2022/07/05 05:50:36;;;;;;;0.33;0.33;;;;;;;19.47;95.53;95737.94;4316439;32;20269;-58
2022/07/05 05:53:04;;;;;;;0.53;0.53;;;;;;;19.65;95.20;95741.97;4361657;32;20228;-58
2022/07/05 05:55:33;;;;;;;0.83;0.83;;;;;;;19.66;95.00;95740.84;4319400;32;20204;-58
2022/07/05 05:58:23;;;;;;;0.87;0.87;;;;;;;19.74;94.97;95741.84;4337352;32;20220;-58
2022/07/05 06:00:52;;;;;;;1.60;0.50;;;;;;;19.59;95.97;95747.91;4325172;32;20185;-58
2022/07/05 06:03:21;;;;;;;3.07;2.23;;;;;;;19.45;96.57;95746.34;4316787;32;20288;-49
2022/07/05 06:05:49;;;;;;;0.40;0.40;;;;;;;19.66;96.71;95750.84;4333531;32;20299;-48
2022/07/05 06:08:15;;;;;;;5.03;0.70;;;;;;;19.93;94.03;95760.84;4318254;32;20197;-48
2022/07/05 06:10:42;;;;;;;1.80;1.17;;;;;;;20.33;90.50;95747.31;4299958;32;20176;-45
2022/07/05 06:13:10;;;;;;;0.60;0.60;;;;;;;20.64;88.79;95753.91;4366986;32;20176;-47
2022/07/05 06:15:37;;;;;;;1.53;0.60;;;;;;;20.84;87.81;95763.66;4371145;32;20189;-49
2022/07/05 06:18:04;;;;;;;0.97;0.70;;;;;;;21.00;86.77;95764.44;4327572;32;20208;-51
2022/07/05 06:20:33;;;;;;;2.20;1.30;;;;;;;21.14;86.84;95759.41;4340624;32;20183;-53
2022/07/05 06:23:02;;;;;;;1.03;1.03;;;;;;;21.26;86.60;95762.03;4311892;32;20196;-49
2022/07/05 06:25:28;;;;;;;2.20;0.93;;;;;;;21.30;86.94;95761.31;4333082;32;20252;-49
2022/07/05 06:27:56;;;;;;;0.70;0.70;;;;;;;21.42;86.23;95766.59;4340061;32;20197;-50
2022/07/05 06:30:30;;;;;;;0.50;0.50;;;;;;;21.45;86.25;95774.00;4333688;32;20176;-47
2022/07/05 06:32:58;;;;;;;0.70;0.70;;;;;;;21.54;85.63;95771.91;4331805;32;20201;-48
2022/07/05 06:35:25;;;;;;;0.87;0.87;;;;;;;21.55;85.72;95774.25;4308061;32;20205;-49
2022/07/05 06:37:55;;;;;;;0.73;0.73;;;;;;;21.56;85.34;95780.44;4347682;32;20200;-48
2022/07/05 06:40:25;;;;;;;0.73;0.73;;;;;;;21.71;84.58;95778.81;4321450;32;20184;-49
2022/07/05 06:42:53;;;;;;;0.50;0.50;;;;;;;21.81;84.92;95780.97;4361420;32;20231;-49
2022/07/05 06:45:19;;;;;;;0.90;0.90;;;;;;;21.86;84.45;95781.47;4348837;32;20220;-48
2022/07/05 06:47:45;;;;;;;0.70;0.70;;;;;;;21.83;84.62;95784.88;4366353;32;20204;-49
2022/07/05 06:50:13;;;;;;;0.20;0.20;;;;;;;21.83;84.94;95778.69;4362025;32;20230;-45
2022/07/05 06:52:40;;;;;;;0.63;0.63;;;;;;;21.95;84.32;95782.06;4354897;32;21084;-50
2022/07/05 06:55:06;;;;;;;0.70;0.70;;;;;;;21.85;84.36;95788.00;4351271;32;20200;-49
2022/07/05 06:57:33;;;;;;;0.40;0.40;;;;;;;21.71;84.68;95793.13;4344977;32;20200;-48
2022/07/05 06:59:59;;;;;;;1.17;1.13;;;;;;;21.72;84.59;95789.28;4350239;32;20269;-48
2022/07/05 07:02:25;;;;;;;0.80;0.80;;;;;;;21.59;85.11;95790.53;4353535;32;20196;-45
2022/07/05 07:04:52;;;;;;;0.80;0.80;;;;;;;21.50;85.75;95795.34;4331811;32;20197;-47
2022/07/05 07:10:07;;;;;;;1.17;1.17;;;;;;;21.41;85.80;95794.72;4365308;32;20254;-48
2022/07/05 07:12:36;;;;;;;0.70;0.70;;;;;;;21.44;85.73;95799.44;4327986;32;20193;-49
2022/07/05 07:15:02;;;;;;;0.87;0.87;;;;;;;21.39;86.06;95805.12;4348972;32;20192;-46
2022/07/05 07:17:29;;;;;;;1.33;1.23;;;;;;;21.42;86.40;95797.06;4352107;32;20200;-50
2022/07/05 07:19:54;;;;;;;0.70;0.70;;;;;;;21.32;86.48;95808.44;4362307;32;20188;-49
2022/07/05 07:22:22;;;;;;;0.50;0.50;;;;;;;21.41;86.25;95805.53;4343087;32;20200;-46
2022/07/05 07:24:47;;;;;;;2.13;2.03;;;;;;;21.50;86.22;95806.12;4367264;32;20189;-48
2022/07/05 07:27:14;;;;;;;1.43;1.33;;;;;;;21.46;86.31;95806.06;4336590;32;20203;-49
2022/07/05 07:29:42;;;;;;;0.70;0.70;;;;;;;21.40;87.69;95815.56;4304976;32;20180;-45
2022/07/05 07:32:09;;;;;;;0.40;0.40;;;;;;;21.54;86.86;95807.00;4333481;32;20277;-50
2022/07/05 07:34:39;;;;;;;1.33;1.23;;;;;;;21.65;85.35;95799.91;4333743;32;20268;-47
2022/07/05 07:37:06;;;;;;;0.33;0.33;;;;;;;21.83;85.19;95808.41;4340536;32;20195;-47
2022/07/05 07:39:34;;;;;;;0.27;0.27;;;;;;;22.00;83.35;95801.84;4329960;32;20185;-46
2022/07/05 07:42:02;;;;;;;1.43;0.73;;;;;;;22.08;82.76;95811.66;4337514;32;20177;-46
2022/07/05 07:44:32;;;;;;;0.73;0.57;;;;;;;22.05;83.06;95807.75;4320243;32;20253;-52
2022/07/05 07:46:58;;;;;;;0.53;0.53;;;;;;;22.11;82.44;95817.16;4334583;32;20185;-50
2022/07/05 07:49:24;;;;;;;0.30;0.30;;;;;;;22.02;81.40;95811.19;4324307;32;20302;-46
2022/07/05 07:51:51;;;;;;;1.03;1.03;;;;;;;22.10;81.63;95814.81;4358610;32;20177;-47
2022/07/05 07:54:16;;;;;;;0.33;0.33;;;;;;;22.18;81.71;95820.00;4343022;32;20184;-47
2022/07/05 07:56:43;;;;;;;7.80;0.73;;;;;;;22.16;81.44;95814.19;4362863;32;20267;-49
2022/07/05 07:59:10;;;;;;;0.47;0.47;;;;;;;21.90;78.98;95819.38;4344956;32;20199;-49
2022/07/05 08:01:38;;;;;;;0.23;0.23;;;;;;;22.17;80.47;95814.97;4375632;32;20184;-52
2022/07/05 08:04:06;;;;;;;0.70;0.70;;;;;;;22.27;79.71;95822.50;4355893;32;20450;-50
2022/07/05 08:06:32;;;;;;;0.80;0.50;;;;;;;22.25;78.57;95819.34;4365606;32;20196;-46
2022/07/05 08:08:59;;;;;;;0.90;0.90;;;;;;;22.19;77.78;95818.09;4369819;32;20273;-48
2022/07/05 08:11:27;;;;;;;0.30;0.30;;;;;;;22.21;79.18;95818.53;4373343;32;20185;-46
2022/07/05 08:13:53;;;;;;;0.90;0.90;;;;;;;22.15;79.42;95822.63;4371168;32;20176;-48
2022/07/05 08:16:19;;;;;;;0.60;0.60;;;;;;;22.16;79.58;95829.63;4354528;32;20235;-47
2022/07/05 08:21:32;;;;;;;0.73;0.73;;;;;;;22.34;78.05;95813.75;4356313;32;20255;-48
2022/07/05 08:24:13;;;;;;;0.77;0.77;;;;;;;22.34;75.12;95819.16;4345985;32;20185;-47
2022/07/05 08:26:41;;;;;;;0.37;0.37;;;;;;;22.29;76.20;95822.91;4358169;32;20188;-47
2022/07/05 08:29:13;;;;;;;6.07;0.47;;;;;;;22.40;73.35;95813.09;4365566;32;20189;-47
2022/07/05 08:31:50;;;;;;;0.40;0.40;;;;;;;22.45;75.31;95820.91;4358562;32;20189;-45
2022/07/05 08:34:20;;;;;;;0.47;0.47;;;;;;;22.50;73.82;95817.94;4375868;32;20250;-49
2022/07/05 08:36:46;;;;;;;0.50;0.50;;;;;;;22.50;72.48;95831.44;4365291;32;20188;-50
2022/07/05 08:39:17;;;;;;;0.40;0.40;;;;;;;22.50;70.08;95827.97;4362830;32;20271;-47
2022/07/05 08:42:09;;;;;;;0.47;0.47;;;;;;;22.50;71.63;95817.94;4334932;32;20188;-48
2022/07/05 08:44:38;;;;;;;0.93;0.20;;;;;;;22.41;62.76;95825.50;4342915;32;20204;-47
2022/07/05 08:47:08;;;;;;;0.33;0.33;;;;;;;22.41;64.40;95816.59;4354662;32;20336;-49
2022/07/05 08:49:55;;;;;;;0.40;0.40;;;;;;;22.50;71.66;95827.97;4340563;32;20401;-46
2022/07/05 08:52:22;;;;;;;0.67;0.50;;;;;;;22.53;72.29;95829.97;4323665;32;20189;-48
2022/07/05 08:54:50;;;;;;;0.30;0.30;;;;;;;22.52;72.37;95831.09;4325273;32;20207;-49
2022/07/05 08:57:22;;;;;;;0.50;0.50;;;;;;;22.53;68.98;95828.03;4353690;32;20201;-50
2022/07/05 08:59:48;;;;;;;0.40;0.40;;;;;;;22.55;70.47;95831.16;4295851;32;20194;-45
2022/07/05 09:02:16;;;;;;;0.87;0.47;;;;;;;22.51;65.04;95830.31;4347345;32;20215;-51
2022/07/05 09:04:46;;;;;;;0.97;0.60;;;;;;;22.60;70.00;95833.59;4353486;32;20220;-48
2022/07/05 09:07:16;;;;;;;0.47;0.47;;;;;;;22.59;68.86;95834.72;4309058;32;20192;-45
2022/07/05 09:09:46;;;;;;;0.40;0.40;;;;;;;22.57;68.24;95828.91;4309947;32;20185;-51
2022/07/05 09:12:13;;;;;;;0.30;0.30;;;;;;;22.43;62.90;95834.03;4352138;32;20261;-51
2022/07/05 09:14:40;;;;;;;3.33;1.10;;;;;;;22.48;64.47;95833.72;4358158;32;20185;-49
2022/07/05 09:17:07;;;;;;;0.33;0.33;;;;;;;22.56;68.66;95840.84;4355260;32;20201;-49
2022/07/05 09:20:29;;;;;;;1.10;0.57;;;;;;;22.61;67.32;95837.09;4335513;32;20184;-48
2022/07/05 09:22:55;;;;;;;0.30;0.30;;;;;;;22.62;66.70;95831.31;4343681;32;20189;-49
2022/07/05 09:25:32;;;;;;;0.67;0.67;;;;;;;22.62;66.26;95831.31;4341821;32;20217;-48
2022/07/05 09:28:08;;;;;;;0.30;0.30;;;;;;;22.64;65.85;95836.38;4356687;32;20211;-46
2022/07/05 09:30:43;;;;;;;0.40;0.40;;;;;;;22.66;64.66;95836.78;4355941;32;20207;-51
2022/07/05 09:33:20;;;;;;;0.40;0.40;;;;;;;22.62;62.41;95836.72;4319941;32;20214;-49
2022/07/05 09:35:56;;;;;;;0.20;0.10;;;;;;;22.52;60.61;95831.87;4345313;32;20192;-48
2022/07/05 09:38:25;;;;;;;0.20;0.20;;;;;;;22.59;67.49;95825.84;4317482;32;20192;-47
2022/07/05 09:40:57;;;;;;;0.00;0.00;;;;;;;22.55;58.48;95830.38;4338575;32;20185;-50
2022/07/05 09:43:24;;;;;;;0.27;0.27;;;;;;;22.70;65.97;95831.44;4358733;32;20185;-49
2022/07/05 09:46:20;;;;;;;0.50;0.50;;;;;;;22.64;59.82;95839.06;4315922;32;20235;-51
2022/07/05 09:48:52;;;;;;;0.50;0.50;;;;;;;22.74;61.72;95832.28;4341205;32;20201;-46
2022/07/05 09:51:20;;;;;;;0.30;0.30;;;;;;;22.85;65.79;95830.59;4343277;32;20232;-47
2022/07/05 09:53:52;;;;;;;0.20;0.20;;;;;;;22.78;66.98;95838.56;4338802;32;20193;-51
2022/07/05 09:56:26;;;;;;;0.27;0.27;;;;;;;22.79;63.53;95838.22;4350727;32;20193;-49
2022/07/05 09:58:53;;;;;;;0.40;0.40;;;;;;;22.88;64.13;95835.28;4345256;32;20185;-48
2022/07/05 10:01:36;;;;;;;0.20;0.20;;;;;;;22.98;56.29;95834.69;4346990;32;20185;-47
2022/07/05 10:04:03;;;;;;;1.83;0.40;;;;;;;23.00;54.82;95842.44;4332959;32;20284;-45
2022/07/05 10:06:32;;;;;;;0.43;0.40;;;;;;;23.00;60.01;95840.53;4327964;32;20220;-48
2022/07/05 10:09:02;;;;;;;0.30;0.30;;;;;;;22.98;53.17;95834.69;4377829;32;20238;-47
2022/07/05 10:11:30;;;;;;;0.40;0.40;;;;;;;23.10;51.55;95829.09;4376379;32;20218;-50
2022/07/05 10:14:03;;;;;;;0.20;0.20;;;;;;;23.13;57.95;95827.59;4363690;32;20185;-47
2022/07/05 10:16:36;;;;;;;0.50;0.50;;;;;;;23.05;52.62;95828.62;4367247;32;20307;-47
2022/07/05 10:19:03;;;;;;;0.20;0.20;;;;;;;23.04;61.00;95827.84;4360711;32;20181;-50
2022/07/05 10:21:30;;;;;;;0.63;0.63;;;;;;;23.13;60.34;95833.00;4353982;32;20292;-52
2022/07/05 10:24:01;;;;;;;0.37;0.37;;;;;;;23.10;55.00;95823.66;4328576;32;20240;-49
2022/07/05 10:26:32;;;;;;;0.93;0.93;;;;;;;23.11;60.93;95821.75;4342005;32;20181;-48
2022/07/05 10:29:01;;;;;;;0.40;0.40;;;;;;;23.08;61.05;95825.97;4372623;32;20200;-48
2022/07/05 10:31:36;;;;;;;0.50;0.50;;;;;;;23.06;57.92;95833.69;4312393;32;20262;-49
2022/07/05 10:34:07;;;;;;;0.70;0.70;;;;;;;22.88;60.57;95832.56;4349314;32;20177;-50
2022/07/05 10:36:38;;;;;;;0.53;0.47;;;;;;;22.93;58.20;95827.66;4351839;32;20299;-48
2022/07/05 10:39:07;;;;;;;0.40;0.40;;;;;;;22.88;56.88;95837.97;4348797;32;20204;-46
2022/07/05 10:41:38;;;;;;;0.37;0.37;;;;;;;22.87;58.50;95839.13;4322412;32;20281;-48
2022/07/05 10:44:04;;;;;;;0.40;0.40;;;;;;;22.79;59.25;95835.53;4355692;32;20308;-46
2022/07/05 10:46:41;;;;;;;0.60;0.60;;;;;;;22.75;59.98;95828.44;4336850;32;20189;-45
2022/07/05 10:49:20;;;;;;;1.20;1.20;;;;;;;22.72;60.09;95827.22;4319853;32;20180;-50
2022/07/05 10:51:47;;;;;;;0.40;0.40;;;;;;;22.76;53.35;95833.50;4348860;32;20191;-48
2022/07/05 10:54:14;;;;;;;0.40;0.40;;;;;;;22.83;57.40;95824.75;4328936;32;20182;-48
2022/07/05 10:56:41;;;;;;;0.50;0.50;;;;;;;22.89;53.09;95828.72;4317549;32;20190;-47
2022/07/05 10:59:12;;;;;;;0.47;0.47;;;;;;;22.89;57.16;95837.63;4322273;32;20299;-49
2022/07/05 11:02:13;;;;;;;0.40;0.40;;;;;;;22.98;57.24;95829.28;4346226;32;20287;-47
2022/07/05 11:04:44;;;;;;;0.53;0.53;;;;;;;22.92;57.20;95833.41;4329583;32;20264;-48
2022/07/05 11:07:09;;;;;;;0.57;0.57;;;;;;;22.84;55.46;95832.53;4276623;33;20194;-46
2022/07/05 11:09:36;;;;;;;0.53;0.53;;;;;;;22.92;54.92;95823.38;4335273;32;20212;-48
2022/07/05 11:12:08;;;;;;;0.30;0.30;;;;;;;22.85;57.39;95825.19;4317199;32;20193;-47
2022/07/05 11:14:37;;;;;;;0.50;0.50;;;;;;;22.84;56.68;95827.13;4313947;33;20201;-48
2022/07/05 11:17:19;;;;;;;0.40;0.40;;;;;;;22.95;55.78;95825.38;4324560;32;20201;-52
2022/07/05 11:20:05;;;;;;;0.40;0.40;;;;;;;23.05;57.59;95821.28;4325237;32;20189;-50
2022/07/05 11:22:32;;;;;;;0.30;0.30;;;;;;;23.20;55.38;95814.19;4352918;32;20259;-50
2022/07/05 11:25:06;;;;;;;0.50;0.50;;;;;;;23.09;57.79;95824.03;4327393;32;20185;-51
2022/07/05 11:27:34;;;;;;;1.30;0.77;;;;;;;22.98;55.65;95815.75;4320362;32;20200;-46
2022/07/05 11:30:21;;;;;;;0.40;0.40;;;;;;;22.93;54.67;95814.13;4335587;32;20247;-45
2022/07/05 11:32:47;;;;;;;0.57;0.40;;;;;;;23.11;50.11;95824.47;4326643;32;20199;-46
2022/07/05 11:35:19;;;;;;;0.30;0.30;;;;;;;23.04;57.04;95818.94;4363126;32;20189;-47
2022/07/05 11:38:11;;;;;;;0.40;0.40;;;;;;;23.09;53.84;95807.78;4343454;32;20176;-51
2022/07/05 11:40:38;;;;;;;1.47;0.57;;;;;;;23.10;54.84;95814.78;4324779;32;20272;-52
2022/07/05 11:43:06;;;;;;;0.50;0.50;;;;;;;23.12;56.20;95813.28;4323007;32;20177;-50
2022/07/05 11:45:34;;;;;;;0.33;0.33;;;;;;;22.99;56.15;95809.19;4344975;32;20188;-49
2022/07/05 11:48:06;;;;;;;0.20;0.20;;;;;;;23.08;51.17;95806.22;4341429;32;20233;-50
2022/07/05 11:50:34;;;;;;;0.20;0.20;;;;;;;23.15;47.86;95814.47;4335598;32;20189;-48
2022/07/05 11:53:01;;;;;;;0.30;0.30;;;;;;;23.14;53.21;95805.56;4309956;32;20277;-48